sensor_id;sensor_type;location;lat;lon;timestamp;P1;P2;P0
80935;PMS7003;70392;51.144;17.050;2023-06-01T00:01:53;13;12;8
80935;PMS7003;70392;51.144;17.050;2023-06-01T00:04:13;8;8;7
80935;PMS7003;70392;51.144;17.050;2023-06-01T00:06:29;12;11;10
80935;PMS7003;70392;51.144;17.050;2023-06-01T00:09:21;14;12;10
80935;PMS7003;70392;51.144;17.050;2023-06-01T00:11:38;11;11;9
80935;PMS7003;70392;51.144;17.050;2023-06-01T00:13:54;14;13;11
80935;PMS7003;70392;51.144;17.050;2023-06-01T00:16:11;15;11;9
80935;PMS7003;70392;51.144;17.050;2023-06-01T00:18:29;16;11;8
80935;PMS7003;70392;51.144;17.050;2023-06-01T00:20:51;10;10;8
80935;PMS7003;70392;51.144;17.050;2023-06-01T00:23:07;10;10;7
80935;PMS7003;70392;51.144;17.050;2023-06-01T00:25:26;13;12;8
80935;PMS7003;70392;51.144;17.050;2023-06-01T00:27:50;13;10;8
80935;PMS7003;70392;51.144;17.050;2023-06-01T00:30:07;13;12;9
80935;PMS7003;70392;51.144;17.050;2023-06-01T00:32:24;9;8;6
80935;PMS7003;70392;51.144;17.050;2023-06-01T00:34:41;11;11;9
80935;PMS7003;70392;51.144;17.050;2023-06-01T00:36:59;9;9;7
80935;PMS7003;70392;51.144;17.050;2023-06-01T00:39:17;14;13;11
80935;PMS7003;70392;51.144;17.050;2023-06-01T00:41:34;9;9;7
80935;PMS7003;70392;51.144;17.050;2023-06-01T00:43:57;11;11;9
80935;PMS7003;70392;51.144;17.050;2023-06-01T00:46:14;11;10;9
80935;PMS7003;70392;51.144;17.050;2023-06-01T00:48:30;11;11;9
80935;PMS7003;70392;51.144;17.050;2023-06-01T00:50:48;10;10;8
80935;PMS7003;70392;51.144;17.050;2023-06-01T00:53:05;15;13;9
80935;PMS7003;70392;51.144;17.050;2023-06-01T00:55:25;13;12;8
80935;PMS7003;70392;51.144;17.050;2023-06-01T00:57:42;13;11;9
80935;PMS7003;70392;51.144;17.050;2023-06-01T01:00:02;11;11;8
80935;PMS7003;70392;51.144;17.050;2023-06-01T01:02:26;11;10;9
80935;PMS7003;70392;51.144;17.050;2023-06-01T01:04:57;12;12;9
80935;PMS7003;70392;51.144;17.050;2023-06-01T01:07:18;11;11;7
80935;PMS7003;70392;51.144;17.050;2023-06-01T01:09:45;15;9;7
80935;PMS7003;70392;51.144;17.050;2023-06-01T01:12:20;14;14;10
80935;PMS7003;70392;51.144;17.050;2023-06-01T01:14:55;10;10;8
80935;PMS7003;70392;51.144;17.050;2023-06-01T01:20:06;13;13;10
80935;PMS7003;70392;51.144;17.050;2023-06-01T01:25:20;13;13;10
80935;PMS7003;70392;51.144;17.050;2023-06-01T01:28:02;11;11;9
80935;PMS7003;70392;51.144;17.050;2023-06-01T01:30:24;13;12;8
80935;PMS7003;70392;51.144;17.050;2023-06-01T01:32:43;10;10;8
80935;PMS7003;70392;51.144;17.050;2023-06-01T01:34:59;10;10;8
80935;PMS7003;70392;51.144;17.050;2023-06-01T01:37:17;12;11;10
80935;PMS7003;70392;51.144;17.050;2023-06-01T01:39:42;10;7;5
80935;PMS7003;70392;51.144;17.050;2023-06-01T01:41:58;13;10;8
80935;PMS7003;70392;51.144;17.050;2023-06-01T01:44:23;12;11;9
80935;PMS7003;70392;51.144;17.050;2023-06-01T01:46:44;11;9;7
80935;PMS7003;70392;51.144;17.050;2023-06-01T01:49:18;9;8;7
80935;PMS7003;70392;51.144;17.050;2023-06-01T01:54:07;13;11;9
80935;PMS7003;70392;51.144;17.050;2023-06-01T01:56:58;12;11;7
80935;PMS7003;70392;51.144;17.050;2023-06-01T01:59:23;12;11;9
80935;PMS7003;70392;51.144;17.050;2023-06-01T02:01:40;10;10;8
80935;PMS7003;70392;51.144;17.050;2023-06-01T02:04:01;11;10;7
80935;PMS7003;70392;51.144;17.050;2023-06-01T02:06:19;12;11;9
80935;PMS7003;70392;51.144;17.050;2023-06-01T02:08:39;12;11;8
80935;PMS7003;70392;51.144;17.050;2023-06-01T02:10:55;11;11;9
80935;PMS7003;70392;51.144;17.050;2023-06-01T02:13:12;13;13;10
80935;PMS7003;70392;51.144;17.050;2023-06-01T02:15:35;14;12;10
80935;PMS7003;70392;51.144;17.050;2023-06-01T02:17:51;14;14;10
80935;PMS7003;70392;51.144;17.050;2023-06-01T02:20:12;14;9;7
80935;PMS7003;70392;51.144;17.050;2023-06-01T02:22:28;11;11;10
80935;PMS7003;70392;51.144;17.050;2023-06-01T02:24:44;11;11;9
80935;PMS7003;70392;51.144;17.050;2023-06-01T02:27:05;15;10;7
80935;PMS7003;70392;51.144;17.050;2023-06-01T02:29:23;13;13;11
80935;PMS7003;70392;51.144;17.050;2023-06-01T02:31:41;12;11;7
80935;PMS7003;70392;51.144;17.050;2023-06-01T02:33:56;12;12;9
80935;PMS7003;70392;51.144;17.050;2023-06-01T02:36:18;10;10;8
80935;PMS7003;70392;51.144;17.050;2023-06-01T02:38:36;8;8;7
80935;PMS7003;70392;51.144;17.050;2023-06-01T02:40:53;12;9;7
80935;PMS7003;70392;51.144;17.050;2023-06-01T02:43:09;13;11;9
80935;PMS7003;70392;51.144;17.050;2023-06-01T02:45:25;19;11;10
80935;PMS7003;70392;51.144;17.050;2023-06-01T02:47:47;13;12;10
80935;PMS7003;70392;51.144;17.050;2023-06-01T02:50:05;11;11;9
80935;PMS7003;70392;51.144;17.050;2023-06-01T02:52:24;13;13;11
80935;PMS7003;70392;51.144;17.050;2023-06-01T02:54:40;11;11;9
80935;PMS7003;70392;51.144;17.050;2023-06-01T02:56:59;13;13;10
80935;PMS7003;70392;51.144;17.050;2023-06-01T02:59:17;14;14;10
80935;PMS7003;70392;51.144;17.050;2023-06-01T03:01:33;10;10;7
80935;PMS7003;70392;51.144;17.050;2023-06-01T03:03:51;17;14;10
80935;PMS7003;70392;51.144;17.050;2023-06-01T03:06:08;13;13;8
80935;PMS7003;70392;51.144;17.050;2023-06-01T03:08:24;11;11;9
80935;PMS7003;70392;51.144;17.050;2023-06-01T03:10:40;12;11;8
80935;PMS7003;70392;51.144;17.050;2023-06-01T03:12:58;14;11;8
80935;PMS7003;70392;51.144;17.050;2023-06-01T03:15:13;12;11;8
80935;PMS7003;70392;51.144;17.050;2023-06-01T03:17:31;12;6;5
80935;PMS7003;70392;51.144;17.050;2023-06-01T03:19:57;11;10;8
80935;PMS7003;70392;51.144;17.050;2023-06-01T03:22:13;13;12;8
80935;PMS7003;70392;51.144;17.050;2023-06-01T03:24:54;12;11;9
80935;PMS7003;70392;51.144;17.050;2023-06-01T03:27:10;11;11;9
80935;PMS7003;70392;51.144;17.050;2023-06-01T03:29:32;13;12;8
80935;PMS7003;70392;51.144;17.050;2023-06-01T03:31:48;10;10;8
80935;PMS7003;70392;51.144;17.050;2023-06-01T03:34:05;13;11;8
80935;PMS7003;70392;51.144;17.050;2023-06-01T03:36:35;11;11;8
80935;PMS7003;70392;51.144;17.050;2023-06-01T03:38:53;16;14;10
80935;PMS7003;70392;51.144;17.050;2023-06-01T03:41:09;56;44;28
80935;PMS7003;70392;51.144;17.050;2023-06-01T03:43:26;63;49;32
80935;PMS7003;70392;51.144;17.050;2023-06-01T03:45:42;86;79;45
80935;PMS7003;70392;51.144;17.050;2023-06-01T03:48:31;21;21;15
80935;PMS7003;70392;51.144;17.050;2023-06-01T03:50:50;15;14;9
80935;PMS7003;70392;51.144;17.050;2023-06-01T03:53:07;17;16;10
80935;PMS7003;70392;51.144;17.050;2023-06-01T03:55:27;22;19;14
80935;PMS7003;70392;51.144;17.050;2023-06-01T03:57:46;19;19;13
80935;PMS7003;70392;51.144;17.050;2023-06-01T04:00:04;23;21;15
80935;PMS7003;70392;51.144;17.050;2023-06-01T04:02:36;18;17;14
80935;PMS7003;70392;51.144;17.050;2023-06-01T04:04:58;27;21;15
80935;PMS7003;70392;51.144;17.050;2023-06-01T04:07:16;26;20;14
80935;PMS7003;70392;51.144;17.050;2023-06-01T04:09:37;19;19;14
80935;PMS7003;70392;51.144;17.050;2023-06-01T04:11:56;17;16;12
80935;PMS7003;70392;51.144;17.050;2023-06-01T04:14:12;21;20;16
80935;PMS7003;70392;51.144;17.050;2023-06-01T04:16:31;19;19;15
80935;PMS7003;70392;51.144;17.050;2023-06-01T04:18:47;24;23;17
80935;PMS7003;70392;51.144;17.050;2023-06-01T04:21:03;22;21;14
80935;PMS7003;70392;51.144;17.050;2023-06-01T04:23:23;24;22;16
80935;PMS7003;70392;51.144;17.050;2023-06-01T04:25:38;20;20;15
80935;PMS7003;70392;51.144;17.050;2023-06-01T04:27:59;24;22;15
80935;PMS7003;70392;51.144;17.050;2023-06-01T04:30:16;24;22;16
80935;PMS7003;70392;51.144;17.050;2023-06-01T04:32:38;20;18;15
80935;PMS7003;70392;51.144;17.050;2023-06-01T04:34:55;20;19;13
80935;PMS7003;70392;51.144;17.050;2023-06-01T04:37:15;22;20;13
80935;PMS7003;70392;51.144;17.050;2023-06-01T04:39:37;14;14;12
80935;PMS7003;70392;51.144;17.050;2023-06-01T04:41:53;21;20;13
80935;PMS7003;70392;51.144;17.050;2023-06-01T04:44:12;16;16;13
80935;PMS7003;70392;51.144;17.050;2023-06-01T04:46:30;18;18;13
80935;PMS7003;70392;51.144;17.050;2023-06-01T04:48:46;20;20;13
80935;PMS7003;70392;51.144;17.050;2023-06-01T04:51:03;23;15;12
80935;PMS7003;70392;51.144;17.050;2023-06-01T04:53:20;17;17;13
80935;PMS7003;70392;51.144;17.050;2023-06-01T04:55:36;21;17;13
80935;PMS7003;70392;51.144;17.050;2023-06-01T04:57:55;23;17;14
80935;PMS7003;70392;51.144;17.050;2023-06-01T05:00:12;18;18;14
80935;PMS7003;70392;51.144;17.050;2023-06-01T05:02:36;18;18;12
80935;PMS7003;70392;51.144;17.050;2023-06-01T05:04:53;14;14;10
80935;PMS7003;70392;51.144;17.050;2023-06-01T05:07:09;24;19;13
80935;PMS7003;70392;51.144;17.050;2023-06-01T05:09:27;19;19;12
80935;PMS7003;70392;51.144;17.050;2023-06-01T05:11:43;15;15;12
80935;PMS7003;70392;51.144;17.050;2023-06-01T05:13:59;17;17;11
80935;PMS7003;70392;51.144;17.050;2023-06-01T05:16:20;20;13;10
80935;PMS7003;70392;51.144;17.050;2023-06-01T05:18:37;22;17;12
80935;PMS7003;70392;51.144;17.050;2023-06-01T05:21:21;15;15;10
80935;PMS7003;70392;51.144;17.050;2023-06-01T05:23:37;12;12;10
80935;PMS7003;70392;51.144;17.050;2023-06-01T05:25:53;20;15;10
80935;PMS7003;70392;51.144;17.050;2023-06-01T05:28:18;14;13;9
80935;PMS7003;70392;51.144;17.050;2023-06-01T05:30:35;15;15;10
80935;PMS7003;70392;51.144;17.050;2023-06-01T05:32:54;17;17;12
80935;PMS7003;70392;51.144;17.050;2023-06-01T05:35:11;19;18;13
80935;PMS7003;70392;51.144;17.050;2023-06-01T05:37:27;19;17;12
80935;PMS7003;70392;51.144;17.050;2023-06-01T05:39:43;16;13;8
80935;PMS7003;70392;51.144;17.050;2023-06-01T05:41:59;18;15;11
80935;PMS7003;70392;51.144;17.050;2023-06-01T05:44:15;15;14;12
80935;PMS7003;70392;51.144;17.050;2023-06-01T05:47:07;22;16;14
80935;PMS7003;70392;51.144;17.050;2023-06-01T05:49:23;10;9;6
80935;PMS7003;70392;51.144;17.050;2023-06-01T05:51:39;13;13;11
80935;PMS7003;70392;51.144;17.050;2023-06-01T05:54:06;13;12;11
80935;PMS7003;70392;51.144;17.050;2023-06-01T05:56:23;16;15;10
80935;PMS7003;70392;51.144;17.050;2023-06-01T05:58:43;15;14;11
80935;PMS7003;70392;51.144;17.050;2023-06-01T06:00:59;12;12;9
80935;PMS7003;70392;51.144;17.050;2023-06-01T06:03:26;14;12;9
80935;PMS7003;70392;51.144;17.050;2023-06-01T06:05:42;14;14;9
80935;PMS7003;70392;51.144;17.050;2023-06-01T06:07:58;19;13;10
80935;PMS7003;70392;51.144;17.050;2023-06-01T06:10:16;14;14;11
80935;PMS7003;70392;51.144;17.050;2023-06-01T06:12:34;12;12;9
80935;PMS7003;70392;51.144;17.050;2023-06-01T06:15:24;12;11;10
80935;PMS7003;70392;51.144;17.050;2023-06-01T06:17:52;11;11;8
80935;PMS7003;70392;51.144;17.050;2023-06-01T06:20:10;19;13;9
80935;PMS7003;70392;51.144;17.050;2023-06-01T06:22:27;13;12;9
80935;PMS7003;70392;51.144;17.050;2023-06-01T06:24:51;7;7;6
80935;PMS7003;70392;51.144;17.050;2023-06-01T06:27:27;11;11;8
80935;PMS7003;70392;51.144;17.050;2023-06-01T06:29:43;17;13;9
80935;PMS7003;70392;51.144;17.050;2023-06-01T06:32:02;13;13;9
80935;PMS7003;70392;51.144;17.050;2023-06-01T06:34:19;17;16;9
80935;PMS7003;70392;51.144;17.050;2023-06-01T06:36:35;10;10;7
80935;PMS7003;70392;51.144;17.050;2023-06-01T06:38:52;11;11;9
80935;PMS7003;70392;51.144;17.050;2023-06-01T06:41:08;10;10;8
80935;PMS7003;70392;51.144;17.050;2023-06-01T06:43:26;11;11;8
80935;PMS7003;70392;51.144;17.050;2023-06-01T06:45:41;11;11;8
80935;PMS7003;70392;51.144;17.050;2023-06-01T06:48:01;11;11;6
80935;PMS7003;70392;51.144;17.050;2023-06-01T06:50:18;14;10;7
80935;PMS7003;70392;51.144;17.050;2023-06-01T06:52:34;11;11;7
80935;PMS7003;70392;51.144;17.050;2023-06-01T06:54:58;7;7;7
80935;PMS7003;70392;51.144;17.050;2023-06-01T06:57:13;10;10;6
80935;PMS7003;70392;51.144;17.050;2023-06-01T06:59:30;11;11;8
80935;PMS7003;70392;51.144;17.050;2023-06-01T07:01:46;9;8;6
80935;PMS7003;70392;51.144;17.050;2023-06-01T07:04:05;10;9;7
80935;PMS7003;70392;51.144;17.050;2023-06-01T07:06:26;13;9;7
80935;PMS7003;70392;51.144;17.050;2023-06-01T07:08:42;8;8;6
80935;PMS7003;70392;51.144;17.050;2023-06-01T07:11:03;6;6;5
80935;PMS7003;70392;51.144;17.050;2023-06-01T07:13:20;7;7;4
80935;PMS7003;70392;51.144;17.050;2023-06-01T07:15:36;13;6;5
80935;PMS7003;70392;51.144;17.050;2023-06-01T07:17:52;8;8;6
80935;PMS7003;70392;51.144;17.050;2023-06-01T07:20:11;10;7;6
80935;PMS7003;70392;51.144;17.050;2023-06-01T07:22:27;7;7;6
80935;PMS7003;70392;51.144;17.050;2023-06-01T07:24:46;8;7;5
80935;PMS7003;70392;51.144;17.050;2023-06-01T07:27:03;11;11;8
80935;PMS7003;70392;51.144;17.050;2023-06-01T07:29:27;9;9;7
80935;PMS7003;70392;51.144;17.050;2023-06-01T07:31:44;10;10;7
80935;PMS7003;70392;51.144;17.050;2023-06-01T07:34:01;14;10;8
80935;PMS7003;70392;51.144;17.050;2023-06-01T07:36:20;10;10;7
80935;PMS7003;70392;51.144;17.050;2023-06-01T07:38:41;11;11;9
80935;PMS7003;70392;51.144;17.050;2023-06-01T07:40:57;11;11;10
80935;PMS7003;70392;51.144;17.050;2023-06-01T07:43:15;8;8;8
80935;PMS7003;70392;51.144;17.050;2023-06-01T07:45:31;10;10;6
80935;PMS7003;70392;51.144;17.050;2023-06-01T07:47:47;9;9;8
80935;PMS7003;70392;51.144;17.050;2023-06-01T07:50:03;12;12;8
80935;PMS7003;70392;51.144;17.050;2023-06-01T07:52:26;7;7;5
80935;PMS7003;70392;51.144;17.050;2023-06-01T07:54:42;12;7;6
80935;PMS7003;70392;51.144;17.050;2023-06-01T07:56:59;8;8;7
80935;PMS7003;70392;51.144;17.050;2023-06-01T07:59:17;9;9;7
80935;PMS7003;70392;51.144;17.050;2023-06-01T08:01:34;7;7;6
80935;PMS7003;70392;51.144;17.050;2023-06-01T08:03:51;9;5;4
80935;PMS7003;70392;51.144;17.050;2023-06-01T08:06:08;6;6;4
80935;PMS7003;70392;51.144;17.050;2023-06-01T08:08:24;7;7;5
80935;PMS7003;70392;51.144;17.050;2023-06-01T08:10:49;4;4;3
80935;PMS7003;70392;51.144;17.050;2023-06-01T08:13:06;6;6;5
80935;PMS7003;70392;51.144;17.050;2023-06-01T08:15:25;6;5;4
80935;PMS7003;70392;51.144;17.050;2023-06-01T08:17:43;5;5;4
80935;PMS7003;70392;51.144;17.050;2023-06-01T08:20:00;4;4;2
80935;PMS7003;70392;51.144;17.050;2023-06-01T08:22:23;5;5;4
80935;PMS7003;70392;51.144;17.050;2023-06-01T08:24:39;5;5;3
80935;PMS7003;70392;51.144;17.050;2023-06-01T08:26:55;4;4;4
80935;PMS7003;70392;51.144;17.050;2023-06-01T08:29:14;4;4;3
80935;PMS7003;70392;51.144;17.050;2023-06-01T08:31:30;4;4;3
80935;PMS7003;70392;51.144;17.050;2023-06-01T08:33:46;11;4;3
80935;PMS7003;70392;51.144;17.050;2023-06-01T08:36:04;3;3;3
80935;PMS7003;70392;51.144;17.050;2023-06-01T08:38:22;5;5;3
80935;PMS7003;70392;51.144;17.050;2023-06-01T08:40:47;2;2;2
80935;PMS7003;70392;51.144;17.050;2023-06-01T08:43:09;5;3;2
80935;PMS7003;70392;51.144;17.050;2023-06-01T08:45:33;4;3;2
80935;PMS7003;70392;51.144;17.050;2023-06-01T08:47:49;3;3;2
80935;PMS7003;70392;51.144;17.050;2023-06-01T08:50:21;2;2;2
80935;PMS7003;70392;51.144;17.050;2023-06-01T08:52:38;3;3;2
80935;PMS7003;70392;51.144;17.050;2023-06-01T08:54:59;4;4;3
80935;PMS7003;70392;51.144;17.050;2023-06-01T08:57:40;3;3;3
80935;PMS7003;70392;51.144;17.050;2023-06-01T08:59:57;2;2;2
80935;PMS7003;70392;51.144;17.050;2023-06-01T09:02:16;4;4;3
80935;PMS7003;70392;51.144;17.050;2023-06-01T09:04:32;3;3;2
80935;PMS7003;70392;51.144;17.050;2023-06-01T09:06:57;2;2;2
80935;PMS7003;70392;51.144;17.050;2023-06-01T09:09:13;4;3;3
80935;PMS7003;70392;51.144;17.050;2023-06-01T09:11:29;3;3;1
80935;PMS7003;70392;51.144;17.050;2023-06-01T09:13:48;3;3;2
80935;PMS7003;70392;51.144;17.050;2023-06-01T09:16:11;2;2;1
80935;PMS7003;70392;51.144;17.050;2023-06-01T09:18:27;3;3;2
80935;PMS7003;70392;51.144;17.050;2023-06-01T09:20:43;2;2;2
80935;PMS7003;70392;51.144;17.050;2023-06-01T09:23:23;5;5;4
80935;PMS7003;70392;51.144;17.050;2023-06-01T09:25:41;4;4;3
80935;PMS7003;70392;51.144;17.050;2023-06-01T09:27:58;4;4;3
80935;PMS7003;70392;51.144;17.050;2023-06-01T09:30:25;4;4;3
80935;PMS7003;70392;51.144;17.050;2023-06-01T09:37:55;4;4;3
80935;PMS7003;70392;51.144;17.050;2023-06-01T09:42:42;4;4;3
80935;PMS7003;70392;51.144;17.050;2023-06-01T09:47:28;4;4;2
80935;PMS7003;70392;51.144;17.050;2023-06-01T09:49:45;2;2;1
80935;PMS7003;70392;51.144;17.050;2023-06-01T09:52:15;2;2;1
80935;PMS7003;70392;51.144;17.050;2023-06-01T09:54:45;3;3;2
80935;PMS7003;70392;51.144;17.050;2023-06-01T09:57:04;4;4;3
80935;PMS7003;70392;51.144;17.050;2023-06-01T09:59:22;3;3;2
80935;PMS7003;70392;51.144;17.050;2023-06-01T10:01:39;3;3;3
80935;PMS7003;70392;51.144;17.050;2023-06-01T10:04:03;3;3;3
80935;PMS7003;70392;51.144;17.050;2023-06-01T10:06:21;51;40;28
80935;PMS7003;70392;51.144;17.050;2023-06-01T10:08:41;14;14;11
80935;PMS7003;70392;51.144;17.050;2023-06-01T10:10:57;5;5;3
80935;PMS7003;70392;51.144;17.050;2023-06-01T10:13:15;2;2;2
80935;PMS7003;70392;51.144;17.050;2023-06-01T10:15:32;4;4;2
80935;PMS7003;70392;51.144;17.050;2023-06-01T10:17:49;4;4;4
80935;PMS7003;70392;51.144;17.050;2023-06-01T10:20:05;5;5;3
80935;PMS7003;70392;51.144;17.050;2023-06-01T10:22:34;9;4;2
80935;PMS7003;70392;51.144;17.050;2023-06-01T10:24:53;5;5;2
80935;PMS7003;70392;51.144;17.050;2023-06-01T10:29:45;4;4;3
80935;PMS7003;70392;51.144;17.050;2023-06-01T10:32:04;3;3;3
80935;PMS7003;70392;51.144;17.050;2023-06-01T10:39:30;4;2;1
80935;PMS7003;70392;51.144;17.050;2023-06-01T10:41:47;3;3;2
80935;PMS7003;70392;51.144;17.050;2023-06-01T10:44:03;2;2;2
80935;PMS7003;70392;51.144;17.050;2023-06-01T10:48:53;4;4;3
80935;PMS7003;70392;51.144;17.050;2023-06-01T10:51:18;4;4;3
80935;PMS7003;70392;51.144;17.050;2023-06-01T10:53:35;5;4;2
80935;PMS7003;70392;51.144;17.050;2023-06-01T10:58:21;4;4;3
80935;PMS7003;70392;51.144;17.050;2023-06-01T11:00:41;5;5;3
80935;PMS7003;70392;51.144;17.050;2023-06-01T11:02:58;6;6;3
80935;PMS7003;70392;51.144;17.050;2023-06-01T11:07:59;4;4;3
80935;PMS7003;70392;51.144;17.050;2023-06-01T11:15:10;5;4;4
80935;PMS7003;70392;51.144;17.050;2023-06-01T11:17:37;6;6;4
80935;PMS7003;70392;51.144;17.050;2023-06-01T11:19:58;4;4;2
80935;PMS7003;70392;51.144;17.050;2023-06-01T11:22:35;4;4;4
80935;PMS7003;70392;51.144;17.050;2023-06-01T11:24:55;6;6;4
80935;PMS7003;70392;51.144;17.050;2023-06-01T11:27:22;6;6;4
80935;PMS7003;70392;51.144;17.050;2023-06-01T11:29:39;11;4;3
80935;PMS7003;70392;51.144;17.050;2023-06-01T11:32:06;3;3;2
80935;PMS7003;70392;51.144;17.050;2023-06-01T11:36:50;4;4;4
80935;PMS7003;70392;51.144;17.050;2023-06-01T11:39:33;5;5;4
80935;PMS7003;70392;51.144;17.050;2023-06-01T11:44:35;5;5;4
80935;PMS7003;70392;51.144;17.050;2023-06-01T11:46:56;6;6;4
80935;PMS7003;70392;51.144;17.050;2023-06-01T11:49:16;3;3;3
80935;PMS7003;70392;51.144;17.050;2023-06-01T11:51:37;3;3;2
80935;PMS7003;70392;51.144;17.050;2023-06-01T11:54:14;6;4;4
80935;PMS7003;70392;51.144;17.050;2023-06-01T11:56:30;7;7;5
80935;PMS7003;70392;51.144;17.050;2023-06-01T11:58:56;6;6;5
80935;PMS7003;70392;51.144;17.050;2023-06-01T12:01:13;7;7;5
80935;PMS7003;70392;51.144;17.050;2023-06-01T12:03:30;8;6;5
80935;PMS7003;70392;51.144;17.050;2023-06-01T12:05:59;5;5;4
80935;PMS7003;70392;51.144;17.050;2023-06-01T12:08:16;5;5;5
80935;PMS7003;70392;51.144;17.050;2023-06-01T12:10:36;6;6;5
80935;PMS7003;70392;51.144;17.050;2023-06-01T12:12:54;8;8;6
80935;PMS7003;70392;51.144;17.050;2023-06-01T12:15:16;6;6;4
80935;PMS7003;70392;51.144;17.050;2023-06-01T12:19:59;7;7;6
80935;PMS7003;70392;51.144;17.050;2023-06-01T12:22:16;6;6;6
80935;PMS7003;70392;51.144;17.050;2023-06-01T12:24:34;7;7;4
80935;PMS7003;70392;51.144;17.050;2023-06-01T12:26:51;12;9;6
80935;PMS7003;70392;51.144;17.050;2023-06-01T12:29:06;8;8;6
80935;PMS7003;70392;51.144;17.050;2023-06-01T12:31:23;7;7;6
80935;PMS7003;70392;51.144;17.050;2023-06-01T12:33:41;5;5;3
80935;PMS7003;70392;51.144;17.050;2023-06-01T12:36:03;6;6;5
80935;PMS7003;70392;51.144;17.050;2023-06-01T12:38:21;6;6;5
80935;PMS7003;70392;51.144;17.050;2023-06-01T12:40:41;7;7;6
80935;PMS7003;70392;51.144;17.050;2023-06-01T12:43:00;6;6;5
80935;PMS7003;70392;51.144;17.050;2023-06-01T12:45:16;6;6;5
80935;PMS7003;70392;51.144;17.050;2023-06-01T12:47:36;6;6;5
80935;PMS7003;70392;51.144;17.050;2023-06-01T12:50:01;6;6;5
80935;PMS7003;70392;51.144;17.050;2023-06-01T12:52:25;6;6;5
80935;PMS7003;70392;51.144;17.050;2023-06-01T12:54:41;5;5;4
80935;PMS7003;70392;51.144;17.050;2023-06-01T12:56:57;8;8;5
80935;PMS7003;70392;51.144;17.050;2023-06-01T12:59:15;7;7;5
80935;PMS7003;70392;51.144;17.050;2023-06-01T13:01:52;8;8;5
80935;PMS7003;70392;51.144;17.050;2023-06-01T13:04:09;7;7;5
80935;PMS7003;70392;51.144;17.050;2023-06-01T13:06:34;8;8;5
80935;PMS7003;70392;51.144;17.050;2023-06-01T13:08:50;7;7;5
80935;PMS7003;70392;51.144;17.050;2023-06-01T13:11:06;9;6;6
80935;PMS7003;70392;51.144;17.050;2023-06-01T13:13:24;7;6;6
80935;PMS7003;70392;51.144;17.050;2023-06-01T13:15:43;5;5;5
80935;PMS7003;70392;51.144;17.050;2023-06-01T13:18:03;6;5;4
80935;PMS7003;70392;51.144;17.050;2023-06-01T13:20:20;6;6;4
80935;PMS7003;70392;51.144;17.050;2023-06-01T13:22:38;4;4;4
80935;PMS7003;70392;51.144;17.050;2023-06-01T13:24:58;8;7;6
80935;PMS7003;70392;51.144;17.050;2023-06-01T13:27:14;11;6;5
80935;PMS7003;70392;51.144;17.050;2023-06-01T13:29:30;7;6;6
80935;PMS7003;70392;51.144;17.050;2023-06-01T13:31:46;7;7;6
80935;PMS7003;70392;51.144;17.050;2023-06-01T13:34:11;7;6;4
80935;PMS7003;70392;51.144;17.050;2023-06-01T13:36:27;7;7;5
80935;PMS7003;70392;51.144;17.050;2023-06-01T13:38:43;6;6;4
80935;PMS7003;70392;51.144;17.050;2023-06-01T13:41:02;8;8;5
80935;PMS7003;70392;51.144;17.050;2023-06-01T13:43:18;7;7;4
80935;PMS7003;70392;51.144;17.050;2023-06-01T13:45:36;6;6;5
80935;PMS7003;70392;51.144;17.050;2023-06-01T13:47:52;6;4;4
80935;PMS7003;70392;51.144;17.050;2023-06-01T13:50:10;6;6;5
80935;PMS7003;70392;51.144;17.050;2023-06-01T13:52:29;5;5;4
80935;PMS7003;70392;51.144;17.050;2023-06-01T13:54:44;6;5;4
80935;PMS7003;70392;51.144;17.050;2023-06-01T13:57:01;9;9;7
80935;PMS7003;70392;51.144;17.050;2023-06-01T13:59:25;11;11;8
80935;PMS7003;70392;51.144;17.050;2023-06-01T14:01:41;7;7;4
80935;PMS7003;70392;51.144;17.050;2023-06-01T14:03:57;7;7;6
80935;PMS7003;70392;51.144;17.050;2023-06-01T14:06:13;7;7;5
80935;PMS7003;70392;51.144;17.050;2023-06-01T14:08:31;7;7;6
80935;PMS7003;70392;51.144;17.050;2023-06-01T14:10:46;7;7;5
80935;PMS7003;70392;51.144;17.050;2023-06-01T14:13:11;8;7;5
80935;PMS7003;70392;51.144;17.050;2023-06-01T14:15:27;9;9;7
80935;PMS7003;70392;51.144;17.050;2023-06-01T14:17:44;7;7;5
80935;PMS7003;70392;51.144;17.050;2023-06-01T14:19:59;7;7;6
80935;PMS7003;70392;51.144;17.050;2023-06-01T14:22:18;6;6;5
80935;PMS7003;70392;51.144;17.050;2023-06-01T14:24:40;6;6;5
80935;PMS7003;70392;51.144;17.050;2023-06-01T14:26:56;7;5;4
80935;PMS7003;70392;51.144;17.050;2023-06-01T14:29:12;6;6;5
80935;PMS7003;70392;51.144;17.050;2023-06-01T14:31:33;6;6;5
80935;PMS7003;70392;51.144;17.050;2023-06-01T14:33:49;8;6;4
80935;PMS7003;70392;51.144;17.050;2023-06-01T14:36:05;8;8;7
80935;PMS7003;70392;51.144;17.050;2023-06-01T14:38:22;7;7;6
80935;PMS7003;70392;51.144;17.050;2023-06-01T14:40:43;6;6;5
80935;PMS7003;70392;51.144;17.050;2023-06-01T14:42:59;6;6;5
80935;PMS7003;70392;51.144;17.050;2023-06-01T14:45:22;14;7;6
80935;PMS7003;70392;51.144;17.050;2023-06-01T14:47:39;9;8;5
80935;PMS7003;70392;51.144;17.050;2023-06-01T14:49:58;8;8;7
80935;PMS7003;70392;51.144;17.050;2023-06-01T14:52:22;8;8;6
80935;PMS7003;70392;51.144;17.050;2023-06-01T14:54:40;6;4;4
80935;PMS7003;70392;51.144;17.050;2023-06-01T14:56:56;7;7;6
80935;PMS7003;70392;51.144;17.050;2023-06-01T14:59:11;6;6;5
80935;PMS7003;70392;51.144;17.050;2023-06-01T15:01:30;6;6;5
80935;PMS7003;70392;51.144;17.050;2023-06-01T15:03:46;7;7;6
80935;PMS7003;70392;51.144;17.050;2023-06-01T15:06:22;4;4;4
80935;PMS7003;70392;51.144;17.050;2023-06-01T15:08:38;7;7;5
80935;PMS7003;70392;51.144;17.050;2023-06-01T15:10:54;5;5;5
80935;PMS7003;70392;51.144;17.050;2023-06-01T15:13:10;7;7;5
80935;PMS7003;70392;51.144;17.050;2023-06-01T15:15:30;5;5;4
80935;PMS7003;70392;51.144;17.050;2023-06-01T15:17:48;6;6;5
80935;PMS7003;70392;51.144;17.050;2023-06-01T15:20:05;7;7;6
80935;PMS7003;70392;51.144;17.050;2023-06-01T15:22:23;9;9;7
80935;PMS7003;70392;51.144;17.050;2023-06-01T15:24:41;7;6;5
80935;PMS7003;70392;51.144;17.050;2023-06-01T15:26:58;6;6;5
80935;PMS7003;70392;51.144;17.050;2023-06-01T15:29:21;7;7;6
80935;PMS7003;70392;51.144;17.050;2023-06-01T15:31:36;6;6;4
80935;PMS7003;70392;51.144;17.050;2023-06-01T15:33:53;7;7;6
80935;PMS7003;70392;51.144;17.050;2023-06-01T15:36:12;5;5;4
80935;PMS7003;70392;51.144;17.050;2023-06-01T15:38:28;10;8;7
80935;PMS7003;70392;51.144;17.050;2023-06-01T15:40:46;6;6;5
80935;PMS7003;70392;51.144;17.050;2023-06-01T15:43:22;7;7;5
80935;PMS7003;70392;51.144;17.050;2023-06-01T15:45:39;7;7;6
80935;PMS7003;70392;51.144;17.050;2023-06-01T15:47:56;10;9;5
80935;PMS7003;70392;51.144;17.050;2023-06-01T15:50:12;9;9;8
80935;PMS7003;70392;51.144;17.050;2023-06-01T15:52:29;3;3;3
80935;PMS7003;70392;51.144;17.050;2023-06-01T15:54:45;8;8;6
80935;PMS7003;70392;51.144;17.050;2023-06-01T15:57:02;7;7;4